LIPL/QBS METAR and TAF weather

Enter ICAO airport designator
Station Type Date Time Source
LIPL METAR 2022/01/28 23:55 UTC NOAA

LIPL 282355Z 20003KT 1400 R31/P2000N BR NSC M01/M02 Q1029


Station Type Date Time Source
LIPL Decoded METAR 2022/01/28 23:55 UTC NOAA

Brescia / Ghedi, Italy (LIPL) 45-25N 010-17E 97M
Jan 28, 2022 - 06:55 PM EST / 2022.01.28 2355 UTC
Wind: from the SSW (200 degrees) at 3 MPH (3 KT):0
Visibility: less than 1 mile:0
Weather: mist
Temperature: 30 F (-1 C)
Dew Point: 28 F (-2 C)
Relative Humidity: 92%
Pressure (altimeter): 30.39 in. Hg (1029 hPa)
ob: LIPL 282355Z 20003KT 1400 R31/P2000N BR NSC M01/M02 Q1029
cycle: 0

Station Type Date Time Source
LIPL TAF 2022/01/12 09:24 UTC NOAA

TAF TAF LIPL 120800Z 1209/1221 34003KT CAVOK

Example: see airport list